Time;durP1;ratioP1;P1;durP2;ratioP2;P2;SDS_P1;SDS_P2;PMS_P1;PMS_P2;Temp;Humidity;BMP_temperature;BMP_pressure;BME280_temperature;BME280_humidity;BME280_pressure;Samples;Min_cycle;Max_cycle;Signal;HPM_P1;HPM_P2
2023/07/13 00:01:14;;;;;;;50.00;6.10;;;;;;;12.29;100.00;101014.48;105778;1254;72536;-44
2023/07/13 00:03:41;;;;;;;49.10;6.00;;;;;;;12.29;100.00;101008.24;105660;1254;60587;-43
2023/07/13 00:06:08;;;;;;;49.90;5.80;;;;;;;12.29;100.00;101007.04;105816;1257;60485;-43
2023/07/13 00:08:36;;;;;;;38.50;5.10;;;;;;;12.29;100.00;101005.65;105721;1257;72570;-44
2023/07/13 00:11:04;;;;;;;36.60;5.90;;;;;;;12.30;100.00;101004.77;105784;1257;66001;-44
2023/07/13 00:13:31;;;;;;;37.00;5.30;;;;;;;12.32;100.00;100997.64;105663;1254;72630;-43
2023/07/13 00:15:58;;;;;;;29.70;5.00;;;;;;;12.36;100.00;100988.73;105767;1257;61934;-43
2023/07/13 00:18:25;;;;;;;32.00;5.00;;;;;;;12.41;100.00;100985.19;105664;1254;60771;-45
2023/07/13 00:20:53;;;;;;;24.50;4.80;;;;;;;12.47;100.00;100982.15;105678;1257;73770;-44
2023/07/13 00:23:20;;;;;;;21.80;4.40;;;;;;;12.51;100.00;100980.70;105675;1258;65368;-44
2023/07/13 00:25:47;;;;;;;10.00;3.40;;;;;;;12.57;100.00;100980.41;105701;1259;72666;-44
2023/07/13 00:28:14;;;;;;;20.80;4.00;;;;;;;12.62;100.00;100980.84;105910;1254;61966;-43
2023/07/13 00:30:41;;;;;;;17.90;3.40;;;;;;;12.63;100.00;100979.94;105746;1254;60589;-43
2023/07/13 00:33:08;;;;;;;20.20;3.80;;;;;;;12.62;100.00;100980.83;105693;1254;73819;-43
2023/07/13 00:35:45;;;;;;;12.40;3.50;;;;;;;12.62;100.00;100985.16;105680;1257;65562;-44
2023/07/13 00:38:12;;;;;;;24.70;4.10;;;;;;;12.62;100.00;100984.98;105658;1257;72684;-42
2023/07/13 00:40:40;;;;;;;18.70;3.90;;;;;;;12.65;100.00;100987.71;105665;1253;61984;-44
2023/07/13 00:43:18;;;;;;;23.60;4.40;;;;;;;12.69;100.00;100991.10;105683;1254;60452;-43
2023/07/13 00:45:45;;;;;;;21.60;3.60;;;;;;;12.72;100.00;100992.77;105729;1254;73732;-43
2023/07/13 00:48:18;;;;;;;25.50;3.60;;;;;;;12.74;100.00;100995.50;105806;1254;65477;-43
2023/07/13 00:50:48;;;;;;;32.50;4.10;;;;;;;12.73;100.00;101002.45;105662;1254;72685;-44
2023/07/13 00:53:15;;;;;;;39.50;4.50;;;;;;;12.71;100.00;101007.50;105596;1261;61931;-44
2023/07/13 00:55:42;;;;;;;32.30;3.80;;;;;;;12.69;100.00;101013.27;105664;1254;60401;-44
2023/07/13 00:58:10;;;;;;;28.10;3.60;;;;;;;12.67;100.00;101014.16;105614;1255;73688;-44
2023/07/13 01:00:38;;;;;;;34.20;3.70;;;;;;;12.66;100.00;101018.34;105700;1257;65479;-44
2023/07/13 01:03:05;;;;;;;24.30;3.50;;;;;;;12.65;100.00;101022.86;105736;1254;72466;-44
2023/07/13 01:05:33;;;;;;;22.00;3.80;;;;;;;12.62;100.00;101025.84;105687;1255;61922;-44
2023/07/13 01:08:00;;;;;;;23.10;3.80;;;;;;;12.62;100.00;101023.08;105671;1255;60466;-42
2023/07/13 01:10:28;;;;;;;14.60;3.40;;;;;;;12.65;100.00;101024.60;105608;1255;73863;-43
2023/07/13 01:12:55;;;;;;;11.10;2.80;;;;;;;12.65;100.00;101026.67;105702;1254;65544;-42
2023/07/13 01:15:40;;;;;;;17.90;2.20;;;;;;;12.62;100.00;101030.34;105690;1255;72459;-42
2023/07/13 01:18:25;;;;;;;13.50;2.60;;;;;;;12.60;100.00;101037.99;105791;1254;61854;-43
2023/07/13 01:20:55;;;;;;;11.80;2.40;;;;;;;12.58;100.00;101039.77;105679;1254;60460;-42
2023/07/13 01:23:22;;;;;;;11.70;2.30;;;;;;;12.58;100.00;101043.23;105673;1257;73799;-43
2023/07/13 01:25:50;;;;;;;14.20;2.60;;;;;;;12.60;100.00;101046.83;105680;1254;65321;-43
2023/07/13 01:28:17;;;;;;;14.50;2.60;;;;;;;12.64;100.00;101050.58;105623;1260;72642;-42
2023/07/13 01:30:45;;;;;;;7.20;1.70;;;;;;;12.71;100.00;101048.73;105627;1254;62006;-42
2023/07/13 01:33:14;;;;;;;13.70;2.10;;;;;;;12.80;100.00;101049.42;105571;1254;60450;-43
2023/07/13 01:35:41;;;;;;;13.30;2.20;;;;;;;12.94;100.00;101047.27;105684;1254;71781;-42
2023/07/13 01:38:10;;;;;;;13.10;2.20;;;;;;;13.06;100.00;101047.04;105615;1254;65430;-42
2023/07/13 01:40:37;;;;;;;17.50;3.00;;;;;;;13.17;100.00;101050.12;105768;1254;73197;-43
2023/07/13 01:43:07;;;;;;;29.60;3.50;;;;;;;13.24;100.00;101062.30;105633;1254;61882;-43
2023/07/13 01:45:34;;;;;;;20.20;2.70;;;;;;;13.27;100.00;101071.77;105565;1254;60495;-43
2023/07/13 01:48:09;;;;;;;26.80;3.70;;;;;;;13.26;100.00;101082.70;105662;1257;73707;-43
2023/07/13 01:50:36;;;;;;;39.10;4.30;;;;;;;13.22;100.00;101088.82;105636;1254;65410;-43
2023/07/13 01:53:03;;;;;;;32.70;3.90;;;;;;;13.18;100.00;101093.76;105633;1257;72668;-43
2023/07/13 01:55:31;;;;;;;46.30;5.00;;;;;;;13.12;100.00;101099.08;105649;1254;62156;-43
2023/07/13 01:58:01;;;;;;;36.00;4.70;;;;;;;13.06;100.00;101099.71;105626;1254;60997;-42
2023/07/13 02:00:29;;;;;;;29.30;5.10;;;;;;;13.03;100.00;101098.89;105694;1254;72462;-43
2023/07/13 02:02:56;;;;;;;40.80;4.10;;;;;;;13.01;100.00;101099.11;105842;1254;65487;-43
2023/07/13 02:05:26;;;;;;;17.40;3.00;;;;;;;12.99;100.00;101096.02;105662;1254;72659;-43
2023/07/13 02:07:54;;;;;;;22.00;4.70;;;;;;;13.01;100.00;101092.00;105724;1260;61863;-42
2023/07/13 02:10:22;;;;;;;35.80;4.60;;;;;;;13.05;100.00;101090.02;105672;1254;60553;-43
2023/07/13 02:12:50;;;;;;;24.60;3.70;;;;;;;13.07;100.00;101082.36;105633;1260;72521;-43
2023/07/13 02:15:18;;;;;;;42.20;4.40;;;;;;;13.09;100.00;101078.34;105653;1260;65444;-43
2023/07/13 02:17:45;;;;;;;30.20;3.90;;;;;;;13.12;100.00;101075.52;105722;1254;72690;-42
2023/07/13 02:20:12;;;;;;;44.20;4.80;;;;;;;13.16;100.00;101071.80;105674;1254;61980;-43
2023/07/13 02:22:39;;;;;;;55.00;5.40;;;;;;;13.20;100.00;101072.06;105823;1254;60507;-42
2023/07/13 02:25:06;;;;;;;26.80;3.80;;;;;;;13.26;100.00;101069.19;105643;1254;73868;-43
2023/07/13 02:27:33;;;;;;;12.40;2.30;;;;;;;13.34;100.00;101071.80;105997;1254;65364;-43
2023/07/13 02:30:01;;;;;;;4.70;2.10;;;;;;;13.50;100.00;101080.71;105719;1254;72635;-42
2023/07/13 02:32:28;;;;;;;6.10;2.00;;;;;;;13.69;100.00;101087.58;105665;1257;61831;-41
2023/07/13 02:34:55;;;;;;;5.40;2.00;;;;;;;13.85;100.00;101093.83;105707;1254;60796;-41
2023/07/13 02:37:22;;;;;;;5.80;2.00;;;;;;;14.01;100.00;101108.07;105626;1257;73745;-45
2023/07/13 02:39:48;;;;;;;3.90;1.90;;;;;;;14.16;100.00;101126.81;105694;1257;64024;-43
2023/07/13 02:42:15;;;;;;;3.70;1.60;;;;;;;14.31;100.00;101145.56;105688;1261;73977;-43
2023/07/13 02:44:42;;;;;;;8.70;1.80;;;;;;;14.45;100.00;101162.61;105641;1254;61884;-42
2023/07/13 02:47:09;;;;;;;4.70;1.60;;;;;;;14.60;100.00;101188.31;105738;1254;60538;-42
2023/07/13 02:49:37;;;;;;;3.80;1.60;;;;;;;14.72;100.00;101199.16;105717;1254;75129;-42
2023/07/13 02:52:05;;;;;;;4.40;1.60;;;;;;;14.86;100.00;101207.69;105598;1257;65432;-42
2023/07/13 02:54:32;;;;;;;2.00;1.80;;;;;;;14.98;100.00;101196.98;105648;1254;72652;-43
2023/07/13 02:56:59;;;;;;;3.20;1.90;;;;;;;15.10;100.00;101180.16;105644;1257;61241;-42
2023/07/13 02:59:26;;;;;;;5.00;1.70;;;;;;;15.21;100.00;101155.35;105598;1254;60509;-43
2023/07/13 03:01:53;;;;;;;2.30;1.70;;;;;;;15.33;100.00;101106.19;105669;1254;73770;-42
2023/07/13 03:04:21;;;;;;;2.20;2.00;;;;;;;15.43;100.00;101036.69;105791;1257;65599;-43
2023/07/13 03:06:48;;;;;;;2.40;2.10;;;;;;;15.52;100.00;100963.39;105654;1254;72647;-42
2023/07/13 03:09:15;;;;;;;6.30;2.10;;;;;;;15.60;100.00;100886.08;105623;1257;60376;-43
2023/07/13 03:11:45;;;;;;;2.60;2.30;;;;;;;15.69;100.00;100804.90;105628;1254;60658;-43
2023/07/13 03:14:18;;;;;;;2.60;2.40;;;;;;;15.76;100.00;100736.45;105649;1254;73556;-42
2023/07/13 03:16:45;;;;;;;6.00;2.10;;;;;;;15.84;100.00;100689.40;105674;1257;64519;-42
2023/07/13 03:19:12;;;;;;;2.20;2.00;;;;;;;15.88;100.00;100648.02;105620;1254;72405;-42
2023/07/13 03:21:39;;;;;;;3.80;2.60;;;;;;;15.91;100.00;100596.41;105594;1258;60724;-43
2023/07/13 03:24:06;;;;;;;5.00;2.30;;;;;;;15.94;100.00;100551.38;105628;1254;60427;-42
2023/07/13 03:26:34;;;;;;;3.30;2.20;;;;;;;15.98;100.00;100529.30;105657;1257;73706;-43
2023/07/13 03:29:02;;;;;;;10.40;2.40;;;;;;;16.00;100.00;100509.02;105853;1257;65491;-42
2023/07/13 03:31:33;;;;;;;6.90;2.20;;;;;;;16.03;100.00;100486.12;105617;1254;72536;-43
2023/07/13 03:34:00;;;;;;;6.40;2.90;;;;;;;16.05;100.00;100477.17;105739;1257;60374;-44
2023/07/13 03:36:29;;;;;;;4.90;2.70;;;;;;;16.11;100.00;100479.73;105817;1253;60546;-42
2023/07/13 03:38:59;;;;;;;2.80;2.10;;;;;;;16.18;100.00;100476.48;105632;1257;73881;-43
2023/07/13 03:41:32;;;;;;;3.90;1.80;;;;;;;16.27;100.00;100478.34;105643;1257;65723;-42
2023/07/13 03:43:59;;;;;;;6.40;2.10;;;;;;;16.37;100.00;100475.66;105668;1254;72887;-42
2023/07/13 03:46:27;;;;;;;3.90;2.10;;;;;;;16.48;100.00;100470.66;105800;1257;60441;-42
2023/07/13 03:48:54;;;;;;;3.40;2.00;;;;;;;16.60;100.00;100452.77;105641;1254;60486;-43
2023/07/13 03:51:21;;;;;;;2.20;2.00;;;;;;;16.71;100.00;100448.09;105967;1254;73876;-43
2023/07/13 03:53:48;;;;;;;4.20;2.10;;;;;;;16.82;100.00;100436.09;105681;1254;65408;-43
2023/07/13 03:56:17;;;;;;;2.90;2.40;;;;;;;17.00;100.00;100433.39;105675;1260;72645;-43
2023/07/13 03:58:48;;;;;;;2.50;2.30;;;;;;;17.24;100.00;100438.61;105603;1259;60589;-43
2023/07/13 04:01:18;;;;;;;5.80;2.50;;;;;;;17.43;100.00;100433.89;105656;1254;60552;-43
2023/07/13 04:03:46;;;;;;;2.50;2.30;;;;;;;17.57;100.00;100443.69;105657;1254;72491;-44
2023/07/13 04:06:27;;;;;;;3.00;2.10;;;;;;;17.72;100.00;100452.02;105740;1254;65464;-43
2023/07/13 04:08:57;;;;;;;4.50;1.90;;;;;;;17.89;100.00;100459.05;105642;1254;72758;-43
2023/07/13 04:11:27;;;;;;;5.00;1.90;;;;;;;18.02;100.00;100465.77;105783;1254;60558;-43
2023/07/13 04:13:54;;;;;;;3.20;1.70;;;;;;;18.12;100.00;100477.92;105856;1257;60479;-44
2023/07/13 04:16:21;;;;;;;3.80;2.40;;;;;;;18.17;100.00;100482.55;105676;1259;73815;-43
2023/07/13 04:18:49;;;;;;;4.80;2.30;;;;;;;18.21;100.00;100485.48;105713;1254;65517;-44
2023/07/13 04:21:16;;;;;;;4.50;2.00;;;;;;;18.28;100.00;100486.17;105812;1254;72645;-43
2023/07/13 04:23:43;;;;;;;8.80;2.40;;;;;;;18.42;100.00;100487.41;105626;1256;60447;-43
2023/07/13 04:26:10;;;;;;;6.60;2.50;;;;;;;18.55;100.00;100504.20;105578;1254;60495;-44
2023/07/13 04:28:38;;;;;;;5.80;2.20;;;;;;;18.68;100.00;100511.45;105644;1257;73819;-43
2023/07/13 04:31:05;;;;;;;9.20;2.90;;;;;;;18.77;100.00;100519.70;105616;1257;65690;-43
2023/07/13 04:33:33;;;;;;;7.80;2.40;;;;;;;18.85;100.00;100532.56;105672;1257;71434;-43
2023/07/13 04:36:01;;;;;;;8.60;2.90;;;;;;;18.89;100.00;100539.00;105712;1257;60351;-44
2023/07/13 04:38:30;;;;;;;6.80;2.40;;;;;;;18.96;100.00;100539.38;105675;1254;60562;-43
2023/07/13 04:40:58;;;;;;;6.60;2.60;;;;;;;19.05;100.00;100541.91;105636;1257;74211;-44
2023/07/13 04:43:25;;;;;;;9.00;2.50;;;;;;;19.07;100.00;100559.27;105634;1258;65481;-43
2023/07/13 04:45:52;;;;;;;9.00;2.90;;;;;;;19.06;100.00;100560.02;105654;1254;72644;-44
2023/07/13 04:48:20;;;;;;;12.20;2.40;;;;;;;19.04;100.00;100572.02;105677;1257;60411;-43
2023/07/13 04:50:53;;;;;;;9.50;2.80;;;;;;;19.08;100.00;100583.20;105777;1256;60450;-44
2023/07/13 04:53:21;;;;;;;14.40;3.10;;;;;;;19.20;100.00;100590.94;105692;1255;74226;-44
2023/07/13 04:55:48;;;;;;;9.10;3.20;;;;;;;19.36;100.00;100591.36;105761;1257;65547;-43
2023/07/13 04:58:17;;;;;;;6.80;3.00;;;;;;;19.51;100.00;100591.41;105703;1254;72699;-44
2023/07/13 05:00:45;;;;;;;5.50;3.00;;;;;;;19.69;100.00;100594.32;105712;1256;60438;-44
2023/07/13 05:03:12;;;;;;;14.40;3.50;;;;;;;19.90;100.00;100617.54;105801;1254;60444;-44
2023/07/13 05:05:39;;;;;;;9.00;3.30;;;;;;;20.13;100.00;100618.54;105650;1257;73716;-44
2023/07/13 05:08:07;;;;;;;10.50;3.30;;;;;;;20.46;100.00;100618.63;105694;1257;65521;-44
2023/07/13 05:10:36;;;;;;;11.20;3.50;;;;;;;20.88;100.00;100624.99;105675;1254;72650;-44
2023/07/13 05:13:03;;;;;;;8.10;3.30;;;;;;;21.34;100.00;100632.45;105635;1257;60546;-45
2023/07/13 05:15:31;;;;;;;9.80;3.20;;;;;;;21.74;100.00;100660.05;105640;1254;60585;-43
2023/07/13 05:17:58;;;;;;;9.50;2.70;;;;;;;22.18;100.00;100672.81;105647;1255;73713;-43
2023/07/13 05:20:25;;;;;;;6.90;2.80;;;;;;;22.54;100.00;100676.10;105629;1259;65201;-44
2023/07/13 05:22:52;;;;;;;5.60;2.90;;;;;;;22.61;89.16;100679.38;105781;1254;72778;-43
2023/07/13 05:25:19;;;;;;;7.00;2.70;;;;;;;22.53;88.58;100717.88;105642;1257;60483;-42
2023/07/13 05:27:47;;;;;;;4.70;3.00;;;;;;;22.48;88.31;100733.83;105683;1253;60438;-43
2023/07/13 05:30:14;;;;;;;8.60;3.00;;;;;;;22.51;90.05;100740.15;105765;1257;73873;-44
2023/07/13 05:32:41;;;;;;;6.70;2.60;;;;;;;22.61;99.96;100750.02;105680;1257;64722;-44
2023/07/13 05:35:09;;;;;;;7.00;3.50;;;;;;;22.81;99.20;100740.31;105768;1254;71445;-43
2023/07/13 05:37:37;;;;;;;8.20;2.60;;;;;;;22.99;95.89;100732.84;105753;1257;60447;-43
2023/07/13 05:40:05;;;;;;;8.40;2.90;;;;;;;23.16;85.48;100714.07;105677;1253;60400;-43
2023/07/13 05:42:33;;;;;;;11.40;2.80;;;;;;;23.28;81.28;100718.63;105693;1254;72619;-43
2023/07/13 05:45:00;;;;;;;4.70;2.90;;;;;;;23.35;78.94;100721.99;105710;1254;65897;-44
2023/07/13 05:47:27;;;;;;;5.90;2.60;;;;;;;23.40;78.85;100739.80;105633;1254;71675;-43
2023/07/13 05:49:53;;;;;;;4.60;2.90;;;;;;;23.55;82.28;100754.66;105692;1257;60367;-43
2023/07/13 05:52:20;;;;;;;7.40;2.70;;;;;;;23.72;79.85;100730.25;105718;1254;60485;-45
2023/07/13 05:54:47;;;;;;;8.70;2.40;;;;;;;23.82;75.54;100705.54;105760;1254;72909;-44
2023/07/13 05:57:15;;;;;;;7.70;2.70;;;;;;;23.83;71.64;100689.50;105689;1254;65450;-42
2023/07/13 05:59:42;;;;;;;6.00;2.70;;;;;;;23.79;71.82;100719.13;105689;1254;72623;-44
2023/07/13 06:02:10;;;;;;;12.40;2.90;;;;;;;23.82;71.53;100727.42;105670;1253;60373;-43
2023/07/13 06:04:37;;;;;;;5.70;2.80;;;;;;;23.92;72.58;100742.02;105661;1257;60460;-43
2023/07/13 06:07:04;;;;;;;10.10;2.50;;;;;;;24.06;71.47;100733.50;105662;1257;73749;-45
2023/07/13 06:09:31;;;;;;;7.10;2.50;;;;;;;24.24;71.30;100734.77;105760;1257;65826;-44
2023/07/13 06:11:58;;;;;;;6.30;2.40;;;;;;;24.36;69.48;100716.95;105729;1254;72492;-45
2023/07/13 06:14:25;;;;;;;4.90;2.10;;;;;;;24.40;66.93;100680.52;105259;1254;514651;-46
2023/07/13 06:19:37;;;;;;;5.00;1.90;;;;;;;24.19;61.29;100599.05;102759;1289;600799;-44
2023/07/13 06:22:05;;;;;;;8.70;2.10;;;;;;;24.00;60.22;100592.08;104692;1267;59309;-44
2023/07/13 06:24:33;;;;;;;10.10;2.00;;;;;;;23.88;60.68;100633.98;104808;1272;59444;-43
2023/07/13 06:27:02;;;;;;;4.50;2.10;;;;;;;23.81;60.34;100628.48;104742;1267;70987;-44
2023/07/13 06:29:31;;;;;;;6.70;1.90;;;;;;;23.72;61.19;100672.42;104880;1268;65238;-45
2023/07/13 06:31:59;;;;;;;6.00;1.90;;;;;;;23.71;61.35;100673.23;104838;1270;71703;-44
2023/07/13 06:34:26;;;;;;;3.80;2.00;;;;;;;23.74;61.74;100694.17;104847;1269;211311;-44
2023/07/13 06:36:54;;;;;;;15.10;2.30;;;;;;;23.81;60.89;100662.32;104974;1269;59368;-44
2023/07/13 06:39:22;;;;;;;8.20;2.10;;;;;;;23.83;60.90;100669.38;105133;1270;70990;-43
2023/07/13 06:41:50;;;;;;;10.60;2.20;;;;;;;23.84;59.81;100632.99;105047;1264;64016;-44
2023/07/13 06:44:17;;;;;;;6.40;2.30;;;;;;;23.80;60.18;100656.17;104818;1269;72633;-45
2023/07/13 06:46:45;;;;;;;7.50;2.10;;;;;;;23.82;60.55;100678.27;104910;1269;59989;-43
2023/07/13 06:49:13;;;;;;;9.50;2.10;;;;;;;23.87;60.61;100679.29;105044;1269;59665;-46
2023/07/13 06:51:40;;;;;;;3.40;1.40;;;;;;;23.98;61.63;100721.39;105126;1269;71217;-44
2023/07/13 06:54:08;;;;;;;4.40;1.70;;;;;;;24.09;61.09;100698.78;104946;1262;64028;-45
2023/07/13 06:56:36;;;;;;;10.00;1.60;;;;;;;24.17;59.55;100637.21;105146;1265;72622;-45
2023/07/13 06:59:03;;;;;;;11.40;1.80;;;;;;;24.19;60.12;100672.09;105536;1261;59704;-44
2023/07/13 07:01:31;;;;;;;5.50;1.80;;;;;;;24.28;60.32;100669.92;105593;1262;60005;-43
2023/07/13 07:03:59;;;;;;;11.90;2.10;;;;;;;24.35;58.70;100600.09;105497;1259;72992;-43
2023/07/13 07:06:27;;;;;;;9.10;2.50;;;;;;;24.39;59.66;100653.63;105856;1260;64005;-43
2023/07/13 07:08:55;;;;;;;2.90;2.00;;;;;;;24.50;59.79;100672.38;105867;1254;71603;-43
2023/07/13 07:11:24;;;;;;;12.20;2.00;;;;;;;24.61;59.74;100658.17;105809;1254;59761;-43
2023/07/13 07:13:52;;;;;;;10.70;1.80;;;;;;;24.71;57.82;100582.98;105680;1253;60042;-46
2023/07/13 07:16:20;;;;;;;7.50;1.90;;;;;;;24.70;57.04;100557.51;105875;1259;71804;-45
2023/07/13 07:18:48;;;;;;;6.40;2.00;;;;;;;24.72;58.07;100614.86;105780;1259;63887;-44
2023/07/13 07:21:16;;;;;;;9.10;2.20;;;;;;;24.76;58.05;100611.36;105824;1254;72711;-44
2023/07/13 07:23:44;;;;;;;4.60;1.90;;;;;;;24.84;57.68;100597.34;105968;1258;59988;-45
2023/07/13 07:26:11;;;;;;;6.80;2.10;;;;;;;24.90;56.80;100556.55;105785;1255;59560;-46
2023/07/13 07:28:39;;;;;;;2.50;2.00;;;;;;;24.95;56.43;100543.77;105858;1251;71775;-45
2023/07/13 07:31:12;;;;;;;2.00;1.80;;;;;;;24.99;57.45;100606.27;105664;1259;64021;-43
2023/07/13 07:33:42;;;;;;;6.80;2.00;;;;;;;25.07;57.32;100598.08;105649;1260;71412;-43
2023/07/13 07:36:11;;;;;;;7.10;2.00;;;;;;;25.18;56.64;100572.85;105755;1258;59765;-45
2023/07/13 07:38:43;;;;;;;4.90;2.80;;;;;;;25.22;55.87;100544.85;105661;1252;59963;-44
2023/07/13 07:41:11;;;;;;;2.80;2.00;;;;;;;25.30;56.52;100595.08;105857;1258;71852;-45
2023/07/13 07:43:41;;;;;;;13.10;1.90;;;;;;;25.43;56.47;100586.64;105835;1256;65185;-44
2023/07/13 07:46:09;;;;;;;3.70;1.80;;;;;;;25.55;55.38;100524.43;105661;1259;73102;-44
2023/07/13 07:48:38;;;;;;;3.00;1.90;;;;;;;25.64;55.49;100542.44;105787;1258;59743;-46
2023/07/13 07:51:06;;;;;;;9.70;1.80;;;;;;;25.74;54.28;100468.48;105711;1255;60085;-45
2023/07/13 07:53:34;;;;;;;13.80;1.90;;;;;;;25.84;54.71;100507.62;105675;1257;72997;-44
2023/07/13 07:56:02;;;;;;;7.00;2.40;;;;;;;25.95;55.98;100583.41;105647;1255;64474;-44
2023/07/13 07:58:49;;;;;;;6.50;2.00;;;;;;;26.16;55.46;100549.17;105633;1258;71577;-45
2023/07/13 08:01:20;;;;;;;10.70;1.70;;;;;;;26.30;54.00;100465.83;105795;1254;59577;-45
2023/07/13 08:03:51;;;;;;;3.20;1.80;;;;;;;26.44;54.09;100472.20;105873;1259;59605;-45
2023/07/13 08:06:22;;;;;;;2.30;1.40;;;;;;;26.70;55.01;100535.03;105818;1254;71866;-45
2023/07/13 08:08:53;;;;;;;6.40;2.00;;;;;;;26.87;52.33;100350.75;105707;1257;65156;-45
2023/07/13 08:11:22;;;;;;;4.60;1.40;;;;;;;26.92;52.23;100370.14;105573;1257;72652;-47
2023/07/13 08:13:52;;;;;;;3.40;1.90;;;;;;;27.01;52.53;100410.77;105741;1257;61109;-45
2023/07/13 08:16:22;;;;;;;6.90;1.60;;;;;;;27.07;51.44;100324.39;105666;1267;59701;-46
2023/07/13 08:18:50;;;;;;;10.40;1.80;;;;;;;27.11;51.30;100340.77;105756;1254;71775;-44
2023/07/13 08:21:21;;;;;;;2.50;1.90;;;;;;;27.20;51.48;100364.27;105723;1253;63905;-44
2023/07/13 08:23:49;;;;;;;4.40;1.50;;;;;;;27.26;50.80;100314.64;105677;1258;71387;-44
2023/07/13 08:26:17;;;;;;;5.50;1.80;;;;;;;27.26;50.86;100315.21;105672;1259;59746;-43
2023/07/13 08:28:45;;;;;;;7.00;1.90;;;;;;;27.27;52.11;100451.29;105817;1257;59987;-46
2023/07/13 08:31:13;;;;;;;6.50;1.80;;;;;;;27.45;52.84;100514.50;105629;1259;73315;-44
2023/07/13 08:33:41;;;;;;;2.10;1.60;;;;;;;27.81;52.27;100453.23;105586;1259;63930;-45
2023/07/13 08:36:09;;;;;;;4.50;1.50;;;;;;;28.00;50.79;100310.34;105642;1254;71420;-45
2023/07/13 08:38:37;;;;;;;4.10;1.40;;;;;;;27.98;51.83;100413.92;105826;1257;59756;-46
2023/07/13 08:41:13;;;;;;;3.30;1.80;;;;;;;27.95;51.16;100378.74;105602;1254;59979;-49
2023/07/13 08:43:45;;;;;;;4.20;1.70;;;;;;;27.73;49.82;100239.83;105770;1259;71867;-44
2023/07/13 08:46:33;;;;;;;5.70;1.70;;;;;;;27.56;50.31;100330.04;105865;1254;64560;-44
2023/07/13 08:49:28;;;;;;;6.80;1.70;;;;;;;27.58;51.52;100442.54;105712;1258;71408;-44
2023/07/13 08:52:11;;;;;;;8.20;1.80;;;;;;;27.63;52.02;100505.90;105643;1259;60030;-44
2023/07/13 08:54:41;;;;;;;6.50;1.50;;;;;;;27.55;50.70;100386.97;105743;1259;60213;-43
2023/07/13 08:57:19;;;;;;;7.20;1.90;;;;;;;27.35;50.74;100398.73;105697;1255;71821;-45
2023/07/13 08:59:47;;;;;;;4.70;1.60;;;;;;;27.23;51.56;100480.54;105679;1268;65184;-46
2023/07/13 09:02:33;;;;;;;8.10;1.90;;;;;;;27.17;51.12;100444.38;105752;1257;72143;-44
2023/07/13 09:05:04;;;;;;;6.30;1.90;;;;;;;27.31;51.89;100522.99;105757;1258;59995;-45
2023/07/13 09:07:44;;;;;;;4.70;1.50;;;;;;;27.65;51.33;100467.08;105731;1259;60001;-45
2023/07/13 09:10:19;;;;;;;1.70;1.50;;;;;;;28.21;52.11;100516.19;105874;1253;72986;-45
2023/07/13 09:12:57;;;;;;;5.30;1.90;;;;;;;28.75;49.93;100313.52;105867;1261;64039;-45
2023/07/13 09:15:26;;;;;;;9.60;2.20;;;;;;;29.03;48.44;100119.58;105639;1256;72687;-47
2023/07/13 09:17:55;;;;;;;4.20;2.10;;;;;;;29.10;48.73;100172.89;105772;1256;60076;-44
2023/07/13 09:20:39;;;;;;;6.30;1.70;;;;;;;29.10;47.99;100118.33;105739;1259;59649;-44
2023/07/13 09:23:11;;;;;;;6.80;2.00;;;;;;;28.96;48.32;100140.55;105779;1256;73062;-47
2023/07/13 09:25:39;;;;;;;2.80;1.40;;;;;;;28.84;49.31;100280.16;105663;1259;65181;-48
2023/07/13 09:28:18;;;;;;;5.10;1.80;;;;;;;28.67;48.16;100173.35;105742;1257;72617;-45
2023/07/13 09:31:33;;;;;;;3.30;1.80;;;;;;;28.42;48.51;100230.65;105871;1257;59755;-49
2023/07/13 09:34:02;;;;;;;5.80;1.90;;;;;;;28.28;49.98;100383.70;105739;1255;59560;-44
2023/07/13 09:36:31;;;;;;;3.40;1.90;;;;;;;28.16;49.94;100416.52;105726;1260;71553;-43
2023/07/13 09:39:32;;;;;;;4.90;1.90;;;;;;;28.04;51.06;100517.39;105819;1266;63943;-47
2023/07/13 09:42:12;;;;;;;3.60;1.80;;;;;;;27.91;49.86;100393.11;105612;1262;72710;-44
2023/07/13 09:44:45;;;;;;;7.60;1.50;;;;;;;27.71;50.57;100464.89;105680;1260;59804;-46
2023/07/13 09:47:17;;;;;;;2.40;1.80;;;;;;;27.61;50.32;100460.55;105666;1260;60165;-47
2023/07/13 09:49:45;;;;;;;5.00;2.00;;;;;;;27.53;51.41;100535.48;105755;1252;71751;-47
2023/07/13 09:52:17;;;;;;;6.30;1.90;;;;;;;27.60;51.21;100535.89;105776;1256;65132;-44
2023/07/13 09:54:48;;;;;;;5.80;1.90;;;;;;;27.76;50.05;100406.12;105782;1255;71376;-45
2023/07/13 09:57:18;;;;;;;14.70;2.40;;;;;;;27.96;50.20;100415.18;105693;1254;59635;-44
2023/07/13 09:59:47;;;;;;;12.40;1.70;;;;;;;28.20;50.17;100416.66;105707;1260;59694;-44
2023/07/13 10:02:25;;;;;;;1.80;1.50;;;;;;;28.34;50.80;100441.10;105699;1258;72016;-45
2023/07/13 10:05:07;;;;;;;7.00;1.90;;;;;;;28.51;50.94;100465.92;105889;1257;65168;-42
2023/07/13 10:07:38;;;;;;;5.60;2.00;;;;;;;28.81;50.24;100378.48;105716;1259;72624;-44
2023/07/13 10:10:14;;;;;;;3.20;1.80;;;;;;;29.04;49.32;100295.05;105704;1259;59708;-45
2023/07/13 10:12:43;;;;;;;5.90;2.00;;;;;;;29.19;49.51;100291.69;105814;1257;59951;-43
2023/07/13 10:15:19;;;;;;;8.30;2.00;;;;;;;29.27;49.44;100284.32;105608;1257;72421;-43
2023/07/13 10:17:52;;;;;;;11.10;1.90;;;;;;;29.44;48.60;100198.94;105790;1259;64003;-46
2023/07/13 10:20:21;;;;;;;9.50;1.80;;;;;;;29.65;49.16;100245.29;105723;1261;71386;-44
2023/07/13 10:22:53;;;;;;;3.80;1.70;;;;;;;29.98;49.24;100285.88;105642;1257;60143;-47
2023/07/13 10:25:24;;;;;;;7.60;1.80;;;;;;;30.27;46.44;99979.02;105659;1267;59605;-47
2023/07/13 10:28:00;;;;;;;8.90;2.00;;;;;;;30.30;45.74;99876.34;105733;1254;73058;-45
2023/07/13 10:30:29;;;;;;;;;;;;;;;30.21;46.06;99935.71;105534;1260;64020;-45
2023/07/13 10:32:58;;;;;;;3.30;1.70;;;;;;;30.18;45.77;99914.29;105816;1258;71453;-45
2023/07/13 10:35:26;;;;;;;9.20;1.80;;;;;;;30.11;45.85;99928.29;105786;1257;60533;-45
2023/07/13 10:38:15;;;;;;;5.60;1.80;;;;;;;30.08;47.62;100145.75;105666;1253;60438;-44
2023/07/13 10:40:46;;;;;;;6.30;2.10;;;;;;;30.03;46.32;100040.96;105740;1258;73839;-46
2023/07/13 10:43:26;;;;;;;6.30;2.50;;;;;;;29.84;46.49;100047.29;105704;1260;65167;-44
2023/07/13 10:45:55;;;;;;;7.50;2.10;;;;;;;29.60;46.77;100100.98;105812;1254;72645;-43
2023/07/13 10:48:23;;;;;;;3.80;1.90;;;;;;;29.47;47.09;100138.95;105771;1257;60891;-45
2023/07/13 10:50:55;;;;;;;2.20;2.00;;;;;;;29.31;46.77;100121.84;105711;1259;60396;-46
2023/07/13 10:53:30;;;;;;;2.80;2.20;;;;;;;29.12;46.80;100099.73;105748;1260;73281;-45
2023/07/13 10:56:05;;;;;;;7.50;2.10;;;;;;;28.84;46.84;100123.78;105695;1253;63928;-46
2023/07/13 10:58:41;;;;;;;2.90;1.50;;;;;;;28.67;49.65;100445.08;105729;1258;72597;-46
2023/07/13 11:01:10;;;;;;;5.10;1.90;;;;;;;28.70;49.97;100514.56;105789;1254;60432;-45
2023/07/13 11:03:49;;;;;;;6.30;2.10;;;;;;;28.80;50.24;100531.76;105776;1258;60533;-45
2023/07/13 11:06:29;;;;;;;3.10;2.00;;;;;;;28.82;49.72;100449.35;105850;1258;73842;-46
2023/07/13 11:08:59;;;;;;;5.10;1.80;;;;;;;28.77;48.60;100346.31;105674;1257;65173;-45
2023/07/13 11:11:31;;;;;;;3.30;1.70;;;;;;;28.67;49.39;100414.38;105506;1258;71812;-46
2023/07/13 11:14:04;;;;;;;;;;;;;;;28.66;49.74;100448.69;105756;1259;60546;-46
2023/07/13 11:16:46;;;;;;;5.00;2.10;;;;;;;28.59;49.82;100444.09;105889;1257;60443;-45
2023/07/13 11:19:16;;;;;;;6.20;2.50;;;;;;;28.51;50.70;100538.87;105663;1257;73932;-44
2023/07/13 11:22:11;;;;;;;6.30;2.20;;;;;;;28.52;49.75;100439.38;105826;1257;63406;-46
2023/07/13 11:25:01;;;;;;;9.80;1.70;;;;;;;28.48;49.78;100436.11;105844;1257;73067;-46
2023/07/13 11:27:43;;;;;;;3.40;2.00;;;;;;;28.35;49.14;100357.29;105644;1259;60600;-47